sensor_id;sensor_type;location;lat;lon;timestamp;P1;durP1;ratioP1;P2;durP2;ratioP2
1054;SDS011;516;51.482;7.120;2022-08-03T00:15:03;6.80;;;6.03;;
1054;SDS011;516;51.482;7.120;2022-08-03T00:17:29;6.67;;;6.07;;
1054;SDS011;516;51.482;7.120;2022-08-03T00:19:55;6.00;;;5.67;;
1054;SDS011;516;51.482;7.120;2022-08-03T00:22:21;6.60;;;5.90;;
1054;SDS011;516;51.482;7.120;2022-08-03T00:24:46;7.43;;;6.00;;
1054;SDS011;516;51.482;7.120;2022-08-03T00:27:12;6.13;;;5.60;;
1054;SDS011;516;51.482;7.120;2022-08-03T00:29:37;6.60;;;6.20;;
1054;SDS011;516;51.482;7.120;2022-08-03T00:32:03;7.47;;;6.67;;
1054;SDS011;516;51.482;7.120;2022-08-03T00:34:29;6.90;;;6.50;;
1054;SDS011;516;51.482;7.120;2022-08-03T00:36:55;6.70;;;6.07;;
1054;SDS011;516;51.482;7.120;2022-08-03T00:39:21;6.27;;;5.73;;
1054;SDS011;516;51.482;7.120;2022-08-03T00:41:46;6.50;;;5.90;;
1054;SDS011;516;51.482;7.120;2022-08-03T00:44:12;9.90;;;6.50;;
1054;SDS011;516;51.482;7.120;2022-08-03T00:46:38;6.43;;;5.93;;
1054;SDS011;516;51.482;7.120;2022-08-03T00:49:03;6.80;;;6.30;;
1054;SDS011;516;51.482;7.120;2022-08-03T00:51:29;8.13;;;6.27;;
1054;SDS011;516;51.482;7.120;2022-08-03T00:53:56;6.43;;;5.90;;
1054;SDS011;516;51.482;7.120;2022-08-03T00:56:21;7.23;;;6.57;;
1054;SDS011;516;51.482;7.120;2022-08-03T00:58:47;8.87;;;6.27;;
1054;SDS011;516;51.482;7.120;2022-08-03T01:01:13;7.50;;;6.37;;
1054;SDS011;516;51.482;7.120;2022-08-03T01:03:39;6.10;;;5.60;;
1054;SDS011;516;51.482;7.120;2022-08-03T01:06:18;9.63;;;5.97;;
1054;SDS011;516;51.482;7.120;2022-08-03T01:09:05;7.87;;;6.50;;
1054;SDS011;516;51.482;7.120;2022-08-03T01:11:54;6.60;;;6.20;;
1054;SDS011;516;51.482;7.120;2022-08-03T01:14:38;6.50;;;6.00;;
1054;SDS011;516;51.482;7.120;2022-08-03T01:19:58;5.90;;;5.50;;
1054;SDS011;516;51.482;7.120;2022-08-03T01:31:12;8.90;;;5.80;;
1054;SDS011;516;51.482;7.120;2022-08-03T01:33:43;6.80;;;6.30;;
1054;SDS011;516;51.482;7.120;2022-08-03T01:36:18;7.53;;;6.80;;
1054;SDS011;516;51.482;7.120;2022-08-03T01:38:50;7.20;;;6.63;;
1054;SDS011;516;51.482;7.120;2022-08-03T01:41:20;6.83;;;6.27;;
1054;SDS011;516;51.482;7.120;2022-08-03T01:43:51;6.77;;;6.27;;
1054;SDS011;516;51.482;7.120;2022-08-03T01:46:18;7.10;;;6.50;;
1054;SDS011;516;51.482;7.120;2022-08-03T01:48:46;7.20;;;6.37;;
1054;SDS011;516;51.482;7.120;2022-08-03T01:51:14;7.40;;;6.40;;
1054;SDS011;516;51.482;7.120;2022-08-03T01:53:42;5.90;;;5.50;;
1054;SDS011;516;51.482;7.120;2022-08-03T01:56:09;6.40;;;5.90;;
1054;SDS011;516;51.482;7.120;2022-08-03T01:58:36;12.03;;;6.23;;
1054;SDS011;516;51.482;7.120;2022-08-03T02:01:04;6.50;;;6.00;;
1054;SDS011;516;51.482;7.120;2022-08-03T02:03:31;5.97;;;5.57;;
1054;SDS011;516;51.482;7.120;2022-08-03T02:06:00;6.70;;;6.20;;
1054;SDS011;516;51.482;7.120;2022-08-03T02:08:26;7.13;;;6.47;;
1054;SDS011;516;51.482;7.120;2022-08-03T02:10:55;7.00;;;6.40;;
1054;SDS011;516;51.482;7.120;2022-08-03T02:13:23;6.87;;;6.27;;
1054;SDS011;516;51.482;7.120;2022-08-03T02:15:50;6.40;;;5.90;;
1054;SDS011;516;51.482;7.120;2022-08-03T02:18:17;8.90;;;6.00;;
1054;SDS011;516;51.482;7.120;2022-08-03T02:20:44;6.57;;;6.07;;
1054;SDS011;516;51.482;7.120;2022-08-03T02:23:10;6.77;;;6.27;;
1054;SDS011;516;51.482;7.120;2022-08-03T02:25:40;7.27;;;6.23;;
1054;SDS011;516;51.482;7.120;2022-08-03T02:28:10;6.87;;;6.17;;
1054;SDS011;516;51.482;7.120;2022-08-03T02:30:41;7.50;;;6.80;;
1054;SDS011;516;51.482;7.120;2022-08-03T02:33:19;7.57;;;6.87;;
1054;SDS011;516;51.482;7.120;2022-08-03T02:36:06;6.50;;;6.10;;
1054;SDS011;516;51.482;7.120;2022-08-03T02:38:35;6.13;;;5.67;;
1054;SDS011;516;51.482;7.120;2022-08-03T02:41:06;6.57;;;6.07;;
1054;SDS011;516;51.482;7.120;2022-08-03T02:43:37;9.53;;;5.93;;
1054;SDS011;516;51.482;7.120;2022-08-03T02:46:05;6.97;;;5.93;;
1054;SDS011;516;51.482;7.120;2022-08-03T02:48:33;6.67;;;6.07;;
1054;SDS011;516;51.482;7.120;2022-08-03T02:51:01;7.13;;;6.53;;
1054;SDS011;516;51.482;7.120;2022-08-03T02:53:28;7.23;;;6.10;;
1054;SDS011;516;51.482;7.120;2022-08-03T02:55:55;7.93;;;6.90;;
1054;SDS011;516;51.482;7.120;2022-08-03T02:58:23;6.90;;;6.27;;
1054;SDS011;516;51.482;7.120;2022-08-03T03:00:50;7.53;;;7.03;;
1054;SDS011;516;51.482;7.120;2022-08-03T03:03:17;9.93;;;6.30;;
1054;SDS011;516;51.482;7.120;2022-08-03T03:05:44;7.97;;;7.20;;
1054;SDS011;516;51.482;7.120;2022-08-03T03:08:12;7.50;;;6.80;;
1054;SDS011;516;51.482;7.120;2022-08-03T03:10:39;11.27;;;7.00;;
1054;SDS011;516;51.482;7.120;2022-08-03T03:13:06;8.90;;;7.40;;
1054;SDS011;516;51.482;7.120;2022-08-03T03:15:33;11.20;;;6.80;;
1054;SDS011;516;51.482;7.120;2022-08-03T03:18:01;9.70;;;7.67;;
1054;SDS011;516;51.482;7.120;2022-08-03T03:20:27;7.90;;;7.30;;
1054;SDS011;516;51.482;7.120;2022-08-03T03:22:59;7.77;;;6.80;;
1054;SDS011;516;51.482;7.120;2022-08-03T03:25:25;7.53;;;6.60;;
1054;SDS011;516;51.482;7.120;2022-08-03T03:28:00;6.83;;;6.23;;
1054;SDS011;516;51.482;7.120;2022-08-03T03:30:27;7.17;;;6.50;;
1054;SDS011;516;51.482;7.120;2022-08-03T03:32:54;7.73;;;7.13;;
1054;SDS011;516;51.482;7.120;2022-08-03T03:35:21;6.33;;;5.93;;
1054;SDS011;516;51.482;7.120;2022-08-03T03:37:47;8.60;;;7.90;;
1054;SDS011;516;51.482;7.120;2022-08-03T03:40:13;10.90;;;7.73;;
1054;SDS011;516;51.482;7.120;2022-08-03T03:42:38;7.60;;;6.70;;
1054;SDS011;516;51.482;7.120;2022-08-03T03:45:05;7.80;;;7.10;;
1054;SDS011;516;51.482;7.120;2022-08-03T03:47:32;9.70;;;7.07;;
1054;SDS011;516;51.482;7.120;2022-08-03T03:50:00;8.17;;;7.43;;
1054;SDS011;516;51.482;7.120;2022-08-03T03:52:27;7.20;;;6.60;;
1054;SDS011;516;51.482;7.120;2022-08-03T03:54:52;9.20;;;7.50;;
1054;SDS011;516;51.482;7.120;2022-08-03T03:57:18;7.30;;;6.70;;
1054;SDS011;516;51.482;7.120;2022-08-03T03:59:44;9.13;;;7.53;;
1054;SDS011;516;51.482;7.120;2022-08-03T04:02:10;7.60;;;7.00;;
1054;SDS011;516;51.482;7.120;2022-08-03T04:04:36;8.73;;;7.83;;
1054;SDS011;516;51.482;7.120;2022-08-03T04:07:34;7.73;;;6.63;;
1054;SDS011;516;51.482;7.120;2022-08-03T04:10:29;7.63;;;6.97;;
1054;SDS011;516;51.482;7.120;2022-08-03T04:13:16;7.53;;;6.97;;
1054;SDS011;516;51.482;7.120;2022-08-03T04:15:43;6.57;;;6.07;;
1054;SDS011;516;51.482;7.120;2022-08-03T04:18:11;7.67;;;7.07;;
1054;SDS011;516;51.482;7.120;2022-08-03T04:20:39;8.83;;;8.00;;
1054;SDS011;516;51.482;7.120;2022-08-03T04:23:09;14.67;;;8.20;;
1054;SDS011;516;51.482;7.120;2022-08-03T04:25:37;9.17;;;7.57;;
1054;SDS011;516;51.482;7.120;2022-08-03T04:28:05;9.10;;;8.03;;
1054;SDS011;516;51.482;7.120;2022-08-03T04:30:32;6.93;;;6.47;;
1054;SDS011;516;51.482;7.120;2022-08-03T04:33:01;7.97;;;7.20;;
1054;SDS011;516;51.482;7.120;2022-08-03T04:35:28;10.40;;;8.27;;
1054;SDS011;516;51.482;7.120;2022-08-03T04:37:57;7.20;;;6.43;;
1054;SDS011;516;51.482;7.120;2022-08-03T04:40:32;7.30;;;6.60;;
1054;SDS011;516;51.482;7.120;2022-08-03T04:42:58;7.40;;;6.90;;
1054;SDS011;516;51.482;7.120;2022-08-03T04:45:26;7.93;;;7.33;;
1054;SDS011;516;51.482;7.120;2022-08-03T04:47:52;10.17;;;7.70;;
1054;SDS011;516;51.482;7.120;2022-08-03T04:50:19;8.07;;;6.90;;
1054;SDS011;516;51.482;7.120;2022-08-03T04:52:45;8.40;;;7.60;;
1054;SDS011;516;51.482;7.120;2022-08-03T04:55:11;10.57;;;7.40;;
1054;SDS011;516;51.482;7.120;2022-08-03T04:57:48;7.97;;;7.30;;
1054;SDS011;516;51.482;7.120;2022-08-03T05:00:14;8.53;;;6.87;;
1054;SDS011;516;51.482;7.120;2022-08-03T05:02:41;7.20;;;6.60;;
1054;SDS011;516;51.482;7.120;2022-08-03T05:05:07;8.70;;;7.07;;
1054;SDS011;516;51.482;7.120;2022-08-03T05:07:33;8.33;;;7.73;;
1054;SDS011;516;51.482;7.120;2022-08-03T05:09:59;7.90;;;7.00;;
1054;SDS011;516;51.482;7.120;2022-08-03T05:12:25;6.93;;;6.50;;
1054;SDS011;516;51.482;7.120;2022-08-03T05:14:50;7.33;;;6.73;;
1054;SDS011;516;51.482;7.120;2022-08-03T05:17:16;10.13;;;8.20;;
1054;SDS011;516;51.482;7.120;2022-08-03T05:19:43;8.37;;;7.57;;
1054;SDS011;516;51.482;7.120;2022-08-03T05:22:09;7.87;;;7.27;;
1054;SDS011;516;51.482;7.120;2022-08-03T05:24:34;7.03;;;6.53;;
1054;SDS011;516;51.482;7.120;2022-08-03T05:27:00;8.27;;;7.43;;
1054;SDS011;516;51.482;7.120;2022-08-03T05:29:25;7.57;;;6.83;;
1054;SDS011;516;51.482;7.120;2022-08-03T05:31:51;8.10;;;7.40;;
1054;SDS011;516;51.482;7.120;2022-08-03T05:34:17;8.73;;;7.83;;
1054;SDS011;516;51.482;7.120;2022-08-03T05:36:42;8.77;;;7.77;;
1054;SDS011;516;51.482;7.120;2022-08-03T05:39:08;8.83;;;8.13;;
1054;SDS011;516;51.482;7.120;2022-08-03T05:41:34;8.07;;;7.33;;
1054;SDS011;516;51.482;7.120;2022-08-03T05:43:59;9.03;;;7.70;;
1054;SDS011;516;51.482;7.120;2022-08-03T05:46:26;8.67;;;7.87;;
1054;SDS011;516;51.482;7.120;2022-08-03T05:48:52;7.73;;;7.20;;
1054;SDS011;516;51.482;7.120;2022-08-03T05:51:18;7.57;;;6.87;;
1054;SDS011;516;51.482;7.120;2022-08-03T05:53:43;8.73;;;7.87;;
1054;SDS011;516;51.482;7.120;2022-08-03T05:56:09;8.63;;;7.57;;
1054;SDS011;516;51.482;7.120;2022-08-03T05:58:36;9.00;;;7.00;;
1054;SDS011;516;51.482;7.120;2022-08-03T06:01:02;8.70;;;7.80;;
1054;SDS011;516;51.482;7.120;2022-08-03T06:03:28;9.50;;;8.50;;
1054;SDS011;516;51.482;7.120;2022-08-03T06:05:53;9.07;;;8.47;;
1054;SDS011;516;51.482;7.120;2022-08-03T06:08:20;8.97;;;8.17;;
1054;SDS011;516;51.482;7.120;2022-08-03T06:10:47;9.70;;;8.83;;
1054;SDS011;516;51.482;7.120;2022-08-03T06:13:13;8.23;;;7.67;;
1054;SDS011;516;51.482;7.120;2022-08-03T06:15:38;11.27;;;9.37;;
1054;SDS011;516;51.482;7.120;2022-08-03T06:18:04;10.07;;;9.07;;
1054;SDS011;516;51.482;7.120;2022-08-03T06:20:30;9.20;;;8.30;;
1054;SDS011;516;51.482;7.120;2022-08-03T06:22:55;10.40;;;9.40;;
1054;SDS011;516;51.482;7.120;2022-08-03T06:25:21;9.80;;;8.70;;
1054;SDS011;516;51.482;7.120;2022-08-03T06:27:47;11.70;;;9.53;;
1054;SDS011;516;51.482;7.120;2022-08-03T06:30:12;9.20;;;8.40;;
1054;SDS011;516;51.482;7.120;2022-08-03T06:32:39;9.70;;;8.90;;
1054;SDS011;516;51.482;7.120;2022-08-03T06:35:05;10.20;;;9.40;;
1054;SDS011;516;51.482;7.120;2022-08-03T06:37:44;10.40;;;9.50;;
1054;SDS011;516;51.482;7.120;2022-08-03T06:40:12;10.20;;;9.30;;
1054;SDS011;516;51.482;7.120;2022-08-03T06:42:40;9.53;;;8.63;;
1054;SDS011;516;51.482;7.120;2022-08-03T06:45:06;8.50;;;7.90;;
1054;SDS011;516;51.482;7.120;2022-08-03T06:47:38;10.27;;;9.40;;
1054;SDS011;516;51.482;7.120;2022-08-03T06:50:05;10.30;;;9.60;;
1054;SDS011;516;51.482;7.120;2022-08-03T06:52:31;9.90;;;9.00;;
1054;SDS011;516;51.482;7.120;2022-08-03T06:54:57;16.23;;;10.27;;
1054;SDS011;516;51.482;7.120;2022-08-03T06:57:23;8.87;;;8.07;;
1054;SDS011;516;51.482;7.120;2022-08-03T06:59:49;10.20;;;9.27;;
1054;SDS011;516;51.482;7.120;2022-08-03T07:02:15;8.93;;;8.43;;
1054;SDS011;516;51.482;7.120;2022-08-03T07:04:42;9.67;;;8.87;;
1054;SDS011;516;51.482;7.120;2022-08-03T07:07:08;10.03;;;9.00;;
1054;SDS011;516;51.482;7.120;2022-08-03T07:09:34;9.90;;;9.00;;
1054;SDS011;516;51.482;7.120;2022-08-03T07:12:00;8.43;;;7.73;;
1054;SDS011;516;51.482;7.120;2022-08-03T07:14:26;9.10;;;8.40;;
1054;SDS011;516;51.482;7.120;2022-08-03T07:16:53;10.10;;;7.37;;
1054;SDS011;516;51.482;7.120;2022-08-03T07:19:19;8.27;;;7.67;;
1054;SDS011;516;51.482;7.120;2022-08-03T07:21:44;9.57;;;8.70;;
1054;SDS011;516;51.482;7.120;2022-08-03T07:24:11;8.43;;;7.70;;
1054;SDS011;516;51.482;7.120;2022-08-03T07:26:37;8.67;;;7.80;;
1054;SDS011;516;51.482;7.120;2022-08-03T07:29:02;9.87;;;8.17;;
1054;SDS011;516;51.482;7.120;2022-08-03T07:31:28;8.50;;;7.90;;
1054;SDS011;516;51.482;7.120;2022-08-03T07:33:54;9.07;;;8.30;;
1054;SDS011;516;51.482;7.120;2022-08-03T07:36:20;8.87;;;8.13;;
1054;SDS011;516;51.482;7.120;2022-08-03T07:38:46;7.90;;;7.23;;
1054;SDS011;516;51.482;7.120;2022-08-03T07:41:12;8.13;;;7.40;;
1054;SDS011;516;51.482;7.120;2022-08-03T07:43:37;7.90;;;7.40;;
1054;SDS011;516;51.482;7.120;2022-08-03T07:46:03;8.13;;;7.37;;
1054;SDS011;516;51.482;7.120;2022-08-03T07:48:29;11.73;;;7.83;;
1054;SDS011;516;51.482;7.120;2022-08-03T07:50:54;7.90;;;7.20;;
1054;SDS011;516;51.482;7.120;2022-08-03T07:53:20;12.73;;;7.73;;
1054;SDS011;516;51.482;7.120;2022-08-03T07:55:46;7.33;;;6.90;;
1054;SDS011;516;51.482;7.120;2022-08-03T07:58:11;7.50;;;6.90;;
1054;SDS011;516;51.482;7.120;2022-08-03T08:00:40;7.40;;;6.90;;
1054;SDS011;516;51.482;7.120;2022-08-03T08:03:06;8.23;;;7.67;;
1054;SDS011;516;51.482;7.120;2022-08-03T08:05:32;9.83;;;9.13;;
1054;SDS011;516;51.482;7.120;2022-08-03T08:07:59;9.20;;;8.33;;
1054;SDS011;516;51.482;7.120;2022-08-03T08:10:26;8.37;;;7.67;;
1054;SDS011;516;51.482;7.120;2022-08-03T08:12:52;9.23;;;8.47;;
1054;SDS011;516;51.482;7.120;2022-08-03T08:15:18;8.83;;;8.33;;
1054;SDS011;516;51.482;7.120;2022-08-03T08:17:45;10.13;;;9.20;;
1054;SDS011;516;51.482;7.120;2022-08-03T08:20:32;9.00;;;8.40;;
1054;SDS011;516;51.482;7.120;2022-08-03T08:23:00;9.90;;;9.20;;
1054;SDS011;516;51.482;7.120;2022-08-03T08:25:27;9.57;;;8.77;;
1054;SDS011;516;51.482;7.120;2022-08-03T08:27:54;10.47;;;9.67;;
1054;SDS011;516;51.482;7.120;2022-08-03T08:30:21;8.63;;;8.10;;
1054;SDS011;516;51.482;7.120;2022-08-03T08:32:48;9.20;;;8.60;;
1054;SDS011;516;51.482;7.120;2022-08-03T08:35:14;9.80;;;9.30;;
1054;SDS011;516;51.482;7.120;2022-08-03T08:37:41;8.43;;;7.93;;
1054;SDS011;516;51.482;7.120;2022-08-03T08:40:07;9.93;;;9.13;;
1054;SDS011;516;51.482;7.120;2022-08-03T08:42:36;8.37;;;7.57;;
1054;SDS011;516;51.482;7.120;2022-08-03T08:45:02;9.17;;;8.27;;
1054;SDS011;516;51.482;7.120;2022-08-03T08:47:33;9.67;;;8.77;;
1054;SDS011;516;51.482;7.120;2022-08-03T08:50:02;8.53;;;7.83;;
1054;SDS011;516;51.482;7.120;2022-08-03T08:52:29;8.00;;;7.60;;
1054;SDS011;516;51.482;7.120;2022-08-03T08:55:01;9.80;;;8.30;;
1054;SDS011;516;51.482;7.120;2022-08-03T08:57:33;6.73;;;6.43;;
1054;SDS011;516;51.482;7.120;2022-08-03T09:00:06;8.30;;;7.70;;
1054;SDS011;516;51.482;7.120;2022-08-03T09:02:34;8.93;;;8.43;;
1054;SDS011;516;51.482;7.120;2022-08-03T09:05:00;8.30;;;7.80;;
1054;SDS011;516;51.482;7.120;2022-08-03T09:07:26;8.20;;;7.60;;
1054;SDS011;516;51.482;7.120;2022-08-03T09:09:52;7.23;;;6.67;;
1054;SDS011;516;51.482;7.120;2022-08-03T09:12:18;7.47;;;6.97;;
1054;SDS011;516;51.482;7.120;2022-08-03T09:14:44;7.53;;;7.03;;
1054;SDS011;516;51.482;7.120;2022-08-03T09:17:10;6.60;;;6.20;;
1054;SDS011;516;51.482;7.120;2022-08-03T09:19:36;7.90;;;7.40;;
1054;SDS011;516;51.482;7.120;2022-08-03T09:22:08;8.20;;;7.80;;
1054;SDS011;516;51.482;7.120;2022-08-03T09:24:36;9.50;;;8.47;;
1054;SDS011;516;51.482;7.120;2022-08-03T09:27:17;13.50;;;8.03;;
1054;SDS011;516;51.482;7.120;2022-08-03T09:29:46;8.20;;;7.60;;
1054;SDS011;516;51.482;7.120;2022-08-03T09:32:12;7.80;;;7.40;;
1054;SDS011;516;51.482;7.120;2022-08-03T09:34:38;6.77;;;6.40;;
1054;SDS011;516;51.482;7.120;2022-08-03T09:37:05;8.00;;;7.17;;
1054;SDS011;516;51.482;7.120;2022-08-03T09:39:38;8.80;;;8.37;;
1054;SDS011;516;51.482;7.120;2022-08-03T09:42:05;8.47;;;8.00;;
1054;SDS011;516;51.482;7.120;2022-08-03T09:44:33;8.57;;;8.07;;
1054;SDS011;516;51.482;7.120;2022-08-03T09:47:00;8.10;;;7.70;;
1054;SDS011;516;51.482;7.120;2022-08-03T09:49:26;9.17;;;8.57;;
1054;SDS011;516;51.482;7.120;2022-08-03T09:51:52;7.77;;;7.27;;
1054;SDS011;516;51.482;7.120;2022-08-03T09:54:25;7.87;;;7.03;;
1054;SDS011;516;51.482;7.120;2022-08-03T09:56:52;7.77;;;7.07;;
1054;SDS011;516;51.482;7.120;2022-08-03T09:59:22;7.37;;;7.07;;
1054;SDS011;516;51.482;7.120;2022-08-03T10:01:52;8.43;;;7.80;;
1054;SDS011;516;51.482;7.120;2022-08-03T10:04:19;8.40;;;7.80;;
1054;SDS011;516;51.482;7.120;2022-08-03T10:06:49;8.03;;;7.40;;
1054;SDS011;516;51.482;7.120;2022-08-03T10:09:27;8.90;;;8.20;;
1054;SDS011;516;51.482;7.120;2022-08-03T10:11:53;8.87;;;8.37;;
1054;SDS011;516;51.482;7.120;2022-08-03T10:14:19;8.30;;;7.70;;
1054;SDS011;516;51.482;7.120;2022-08-03T10:16:47;9.90;;;9.00;;
1054;SDS011;516;51.482;7.120;2022-08-03T10:19:14;8.73;;;8.13;;
1054;SDS011;516;51.482;7.120;2022-08-03T10:21:41;9.87;;;9.10;;
1054;SDS011;516;51.482;7.120;2022-08-03T10:24:25;7.97;;;7.57;;
1054;SDS011;516;51.482;7.120;2022-08-03T10:26:52;8.60;;;8.10;;
1054;SDS011;516;51.482;7.120;2022-08-03T10:29:27;8.23;;;7.63;;
1054;SDS011;516;51.482;7.120;2022-08-03T10:31:58;9.00;;;8.20;;
1054;SDS011;516;51.482;7.120;2022-08-03T10:34:28;8.70;;;7.93;;
1054;SDS011;516;51.482;7.120;2022-08-03T10:36:59;8.13;;;7.33;;
1054;SDS011;516;51.482;7.120;2022-08-03T10:39:27;7.50;;;7.10;;
1054;SDS011;516;51.482;7.120;2022-08-03T10:41:54;7.90;;;7.20;;
1054;SDS011;516;51.482;7.120;2022-08-03T10:44:23;8.33;;;7.67;;
1054;SDS011;516;51.482;7.120;2022-08-03T10:46:50;12.20;;;7.20;;
1054;SDS011;516;51.482;7.120;2022-08-03T10:49:17;7.73;;;7.13;;
1054;SDS011;516;51.482;7.120;2022-08-03T10:51:43;8.87;;;8.00;;
1054;SDS011;516;51.482;7.120;2022-08-03T10:57:01;7.30;;;6.70;;
1054;SDS011;516;51.482;7.120;2022-08-03T11:02:11;8.07;;;7.47;;
1054;SDS011;516;51.482;7.120;2022-08-03T11:04:38;8.67;;;7.90;;
1054;SDS011;516;51.482;7.120;2022-08-03T11:07:21;8.97;;;8.30;;
1054;SDS011;516;51.482;7.120;2022-08-03T11:09:51;9.50;;;8.50;;
1054;SDS011;516;51.482;7.120;2022-08-03T11:12:23;8.43;;;7.73;;
1054;SDS011;516;51.482;7.120;2022-08-03T11:14:49;9.40;;;8.70;;
1054;SDS011;516;51.482;7.120;2022-08-03T11:17:15;9.10;;;8.30;;
1054;SDS011;516;51.482;7.120;2022-08-03T11:19:49;8.07;;;7.37;;
1054;SDS011;516;51.482;7.120;2022-08-03T11:22:16;7.90;;;7.20;;
1054;SDS011;516;51.482;7.120;2022-08-03T11:43:07;8.00;;;7.60;;
1054;SDS011;516;51.482;7.120;2022-08-03T11:45:59;8.60;;;6.80;;
1054;SDS011;516;51.482;7.120;2022-08-03T11:48:46;7.73;;;7.00;;
1054;SDS011;516;51.482;7.120;2022-08-03T11:51:23;7.50;;;7.10;;
1054;SDS011;516;51.482;7.120;2022-08-03T11:53:55;7.87;;;7.17;;
1054;SDS011;516;51.482;7.120;2022-08-03T11:56:41;8.00;;;7.30;;
1054;SDS011;516;51.482;7.120;2022-08-03T11:59:11;7.87;;;7.07;;
1054;SDS011;516;51.482;7.120;2022-08-03T12:01:37;7.30;;;6.53;;
1054;SDS011;516;51.482;7.120;2022-08-03T12:04:04;7.10;;;6.43;;
1054;SDS011;516;51.482;7.120;2022-08-03T12:06:30;6.80;;;6.47;;
1054;SDS011;516;51.482;7.120;2022-08-03T12:09:16;6.70;;;6.10;;
1054;SDS011;516;51.482;7.120;2022-08-03T12:11:42;7.40;;;6.80;;
1054;SDS011;516;51.482;7.120;2022-08-03T12:14:15;7.50;;;6.27;;
1054;SDS011;516;51.482;7.120;2022-08-03T12:16:45;8.03;;;6.60;;
1054;SDS011;516;51.482;7.120;2022-08-03T12:19:11;8.80;;;7.03;;
1054;SDS011;516;51.482;7.120;2022-08-03T12:24:23;6.33;;;5.97;;
1054;SDS011;516;51.482;7.120;2022-08-03T12:26:52;6.60;;;6.10;;
1054;SDS011;516;51.482;7.120;2022-08-03T12:29:18;7.13;;;6.53;;
1054;SDS011;516;51.482;7.120;2022-08-03T12:31:45;7.60;;;7.00;;
1054;SDS011;516;51.482;7.120;2022-08-03T12:34:11;7.13;;;6.73;;
1054;SDS011;516;51.482;7.120;2022-08-03T12:36:37;7.63;;;6.93;;
1054;SDS011;516;51.482;7.120;2022-08-03T12:39:15;6.67;;;6.27;;
1054;SDS011;516;51.482;7.120;2022-08-03T12:41:41;7.73;;;6.40;;
1054;SDS011;516;51.482;7.120;2022-08-03T12:44:07;7.60;;;6.23;;
1054;SDS011;516;51.482;7.120;2022-08-03T12:46:39;6.87;;;6.37;;
1054;SDS011;516;51.482;7.120;2022-08-03T12:49:09;6.50;;;6.10;;
1054;SDS011;516;51.482;7.120;2022-08-03T12:54:06;7.43;;;6.77;;
1054;SDS011;516;51.482;7.120;2022-08-03T12:56:33;7.73;;;7.00;;
1054;SDS011;516;51.482;7.120;2022-08-03T12:58:59;7.10;;;6.70;;
1054;SDS011;516;51.482;7.120;2022-08-03T13:01:45;7.17;;;6.53;;
1054;SDS011;516;51.482;7.120;2022-08-03T13:04:11;10.43;;;6.67;;
1054;SDS011;516;51.482;7.120;2022-08-03T13:06:37;6.27;;;5.87;;
1054;SDS011;516;51.482;7.120;2022-08-03T13:09:03;6.90;;;6.43;;
1054;SDS011;516;51.482;7.120;2022-08-03T13:11:30;7.10;;;6.60;;
1054;SDS011;516;51.482;7.120;2022-08-03T13:13:56;6.43;;;5.93;;
1054;SDS011;516;51.482;7.120;2022-08-03T13:16:22;6.30;;;6.00;;
1054;SDS011;516;51.482;7.120;2022-08-03T13:18:48;6.83;;;6.50;;
1054;SDS011;516;51.482;7.120;2022-08-03T13:21:16;6.83;;;6.33;;
1054;SDS011;516;51.482;7.120;2022-08-03T13:23:43;6.27;;;5.97;;
1054;SDS011;516;51.482;7.120;2022-08-03T13:26:09;7.30;;;6.60;;
1054;SDS011;516;51.482;7.120;2022-08-03T13:28:36;10.43;;;6.90;;
1054;SDS011;516;51.482;7.120;2022-08-03T13:31:02;6.60;;;6.30;;
1054;SDS011;516;51.482;7.120;2022-08-03T13:33:28;7.47;;;7.00;;
1054;SDS011;516;51.482;7.120;2022-08-03T13:35:54;6.90;;;6.50;;
1054;SDS011;516;51.482;7.120;2022-08-03T13:38:19;6.90;;;6.30;;
1054;SDS011;516;51.482;7.120;2022-08-03T13:40:45;8.30;;;6.90;;
1054;SDS011;516;51.482;7.120;2022-08-03T13:43:11;7.50;;;6.87;;
1054;SDS011;516;51.482;7.120;2022-08-03T13:45:37;7.30;;;6.73;;
1054;SDS011;516;51.482;7.120;2022-08-03T13:48:03;7.80;;;7.00;;
1054;SDS011;516;51.482;7.120;2022-08-03T13:50:29;7.57;;;6.90;;
1054;SDS011;516;51.482;7.120;2022-08-03T13:52:57;6.80;;;6.40;;
1054;SDS011;516;51.482;7.120;2022-08-03T13:55:23;7.73;;;6.90;;
1054;SDS011;516;51.482;7.120;2022-08-03T13:57:49;8.73;;;7.77;;
1054;SDS011;516;51.482;7.120;2022-08-03T14:00:16;6.90;;;6.50;;
1054;SDS011;516;51.482;7.120;2022-08-03T14:02:42;7.00;;;6.60;;
1054;SDS011;516;51.482;7.120;2022-08-03T14:05:08;7.90;;;7.30;;
1054;SDS011;516;51.482;7.120;2022-08-03T14:07:33;7.23;;;6.93;;
1054;SDS011;516;51.482;7.120;2022-08-03T14:09:59;7.70;;;7.20;;
1054;SDS011;516;51.482;7.120;2022-08-03T14:12:25;6.47;;;6.20;;
1054;SDS011;516;51.482;7.120;2022-08-03T14:14:52;7.23;;;6.80;;
1054;SDS011;516;51.482;7.120;2022-08-03T14:17:17;7.90;;;6.83;;
1054;SDS011;516;51.482;7.120;2022-08-03T14:19:43;6.43;;;5.83;;
1054;SDS011;516;51.482;7.120;2022-08-03T14:22:09;7.03;;;6.40;;
1054;SDS011;516;51.482;7.120;2022-08-03T14:24:35;6.70;;;6.20;;
1054;SDS011;516;51.482;7.120;2022-08-03T14:27:00;7.40;;;6.97;;
1054;SDS011;516;51.482;7.120;2022-08-03T14:29:26;7.53;;;6.40;;
1054;SDS011;516;51.482;7.120;2022-08-03T14:31:52;6.77;;;6.37;;
1054;SDS011;516;51.482;7.120;2022-08-03T14:34:18;7.17;;;6.70;;
1054;SDS011;516;51.482;7.120;2022-08-03T14:36:43;7.20;;;6.63;;
1054;SDS011;516;51.482;7.120;2022-08-03T14:39:11;7.07;;;6.50;;
1054;SDS011;516;51.482;7.120;2022-08-03T14:41:37;6.80;;;6.40;;
1054;SDS011;516;51.482;7.120;2022-08-03T14:44:03;7.17;;;6.77;;
1054;SDS011;516;51.482;7.120;2022-08-03T14:46:29;7.47;;;6.87;;
1054;SDS011;516;51.482;7.120;2022-08-03T14:48:56;6.77;;;6.27;;
1054;SDS011;516;51.482;7.120;2022-08-03T14:51:22;7.10;;;6.60;;
1054;SDS011;516;51.482;7.120;2022-08-03T14:53:48;8.23;;;5.83;;
1054;SDS011;516;51.482;7.120;2022-08-03T14:56:14;7.70;;;6.20;;
1054;SDS011;516;51.482;7.120;2022-08-03T14:58:39;6.63;;;5.80;;
1054;SDS011;516;51.482;7.120;2022-08-03T15:01:05;6.40;;;6.00;;
1054;SDS011;516;51.482;7.120;2022-08-03T15:03:31;6.03;;;5.53;;
1054;SDS011;516;51.482;7.120;2022-08-03T15:05:57;8.33;;;6.60;;
1054;SDS011;516;51.482;7.120;2022-08-03T15:08:23;6.10;;;5.70;;
1054;SDS011;516;51.482;7.120;2022-08-03T15:10:50;6.17;;;5.87;;
1054;SDS011;516;51.482;7.120;2022-08-03T15:13:16;7.40;;;6.47;;
1054;SDS011;516;51.482;7.120;2022-08-03T15:15:43;7.07;;;6.67;;
1054;SDS011;516;51.482;7.120;2022-08-03T15:18:09;7.47;;;6.33;;
1054;SDS011;516;51.482;7.120;2022-08-03T15:20:35;6.93;;;6.43;;
1054;SDS011;516;51.482;7.120;2022-08-03T15:23:02;6.93;;;6.50;;
1054;SDS011;516;51.482;7.120;2022-08-03T15:25:28;6.30;;;5.90;;
1054;SDS011;516;51.482;7.120;2022-08-03T15:27:53;6.10;;;5.70;;
1054;SDS011;516;51.482;7.120;2022-08-03T15:30:19;6.23;;;5.93;;
1054;SDS011;516;51.482;7.120;2022-08-03T15:32:45;6.80;;;5.83;;
1054;SDS011;516;51.482;7.120;2022-08-03T15:35:11;5.77;;;5.37;;
1054;SDS011;516;51.482;7.120;2022-08-03T15:37:37;5.63;;;5.33;;
1054;SDS011;516;51.482;7.120;2022-08-03T15:40:03;6.43;;;5.93;;
1054;SDS011;516;51.482;7.120;2022-08-03T15:42:30;6.47;;;5.97;;
1054;SDS011;516;51.482;7.120;2022-08-03T15:44:57;6.67;;;6.17;;
1054;SDS011;516;51.482;7.120;2022-08-03T15:47:23;6.50;;;5.90;;
1054;SDS011;516;51.482;7.120;2022-08-03T15:49:49;6.03;;;5.53;;
1054;SDS011;516;51.482;7.120;2022-08-03T15:52:14;7.47;;;5.90;;
1054;SDS011;516;51.482;7.120;2022-08-03T15:54:40;7.67;;;5.63;;
1054;SDS011;516;51.482;7.120;2022-08-03T15:57:06;5.87;;;5.43;;
1054;SDS011;516;51.482;7.120;2022-08-03T15:59:32;6.00;;;5.50;;
1054;SDS011;516;51.482;7.120;2022-08-03T16:01:58;6.57;;;5.73;;
1054;SDS011;516;51.482;7.120;2022-08-03T16:04:23;6.60;;;6.20;;
1054;SDS011;516;51.482;7.120;2022-08-03T16:06:58;6.30;;;6.00;;
1054;SDS011;516;51.482;7.120;2022-08-03T16:09:24;6.53;;;6.03;;
1054;SDS011;516;51.482;7.120;2022-08-03T16:11:49;6.33;;;5.83;;
1054;SDS011;516;51.482;7.120;2022-08-03T16:14:15;6.10;;;5.80;;
1054;SDS011;516;51.482;7.120;2022-08-03T16:16:41;7.13;;;6.50;;
1054;SDS011;516;51.482;7.120;2022-08-03T16:19:06;6.17;;;5.77;;
1054;SDS011;516;51.482;7.120;2022-08-03T16:21:32;6.90;;;6.40;;
1054;SDS011;516;51.482;7.120;2022-08-03T16:23:58;6.27;;;5.87;;
1054;SDS011;516;51.482;7.120;2022-08-03T16:26:25;5.80;;;5.50;;
1054;SDS011;516;51.482;7.120;2022-08-03T16:28:51;6.53;;;5.90;;